sensor_id;sensor_type;location;lat;lon;timestamp;P1;durP1;ratioP1;P2;durP2;ratioP2
42226;SDS011;27892;52.378;13.122;2023-05-10T00:00:33;4.97;;;4.47;;
42226;SDS011;27892;52.378;13.122;2023-05-10T00:02:58;6.37;;;4.47;;
42226;SDS011;27892;52.378;13.122;2023-05-10T00:05:24;5.00;;;4.50;;
42226;SDS011;27892;52.378;13.122;2023-05-10T00:07:50;5.93;;;5.30;;
42226;SDS011;27892;52.378;13.122;2023-05-10T00:10:15;5.67;;;4.70;;
42226;SDS011;27892;52.378;13.122;2023-05-10T00:12:41;6.10;;;4.43;;
42226;SDS011;27892;52.378;13.122;2023-05-10T00:15:07;5.73;;;4.73;;
42226;SDS011;27892;52.378;13.122;2023-05-10T00:17:33;4.93;;;4.43;;
42226;SDS011;27892;52.378;13.122;2023-05-10T00:19:59;6.73;;;4.97;;
42226;SDS011;27892;52.378;13.122;2023-05-10T00:22:25;5.60;;;4.83;;
42226;SDS011;27892;52.378;13.122;2023-05-10T00:24:51;6.33;;;5.00;;
42226;SDS011;27892;52.378;13.122;2023-05-10T00:27:16;5.30;;;4.80;;
42226;SDS011;27892;52.378;13.122;2023-05-10T00:29:42;6.17;;;4.53;;
42226;SDS011;27892;52.378;13.122;2023-05-10T00:32:08;5.20;;;4.60;;
42226;SDS011;27892;52.378;13.122;2023-05-10T00:34:33;6.43;;;4.70;;
42226;SDS011;27892;52.378;13.122;2023-05-10T00:36:59;5.67;;;4.90;;
42226;SDS011;27892;52.378;13.122;2023-05-10T00:39:25;5.73;;;4.47;;
42226;SDS011;27892;52.378;13.122;2023-05-10T00:41:51;6.90;;;4.83;;
42226;SDS011;27892;52.378;13.122;2023-05-10T00:44:17;5.30;;;4.10;;
42226;SDS011;27892;52.378;13.122;2023-05-10T00:46:43;6.27;;;4.73;;
42226;SDS011;27892;52.378;13.122;2023-05-10T00:49:10;5.40;;;4.90;;
42226;SDS011;27892;52.378;13.122;2023-05-10T00:51:36;9.97;;;8.07;;
42226;SDS011;27892;52.378;13.122;2023-05-10T00:54:02;10.83;;;7.97;;
42226;SDS011;27892;52.378;13.122;2023-05-10T00:56:28;7.20;;;5.50;;
42226;SDS011;27892;52.378;13.122;2023-05-10T00:58:55;8.53;;;5.67;;
42226;SDS011;27892;52.378;13.122;2023-05-10T01:01:20;6.50;;;5.33;;
42226;SDS011;27892;52.378;13.122;2023-05-10T01:03:46;7.30;;;5.00;;
42226;SDS011;27892;52.378;13.122;2023-05-10T01:06:13;4.63;;;4.23;;
42226;SDS011;27892;52.378;13.122;2023-05-10T01:08:39;8.00;;;5.00;;
42226;SDS011;27892;52.378;13.122;2023-05-10T01:11:05;6.23;;;4.77;;
42226;SDS011;27892;52.378;13.122;2023-05-10T01:16:02;5.63;;;4.83;;
42226;SDS011;27892;52.378;13.122;2023-05-10T01:18:29;6.33;;;4.80;;
42226;SDS011;27892;52.378;13.122;2023-05-10T01:21:10;5.87;;;4.80;;
42226;SDS011;27892;52.378;13.122;2023-05-10T01:27:02;6.10;;;5.30;;
42226;SDS011;27892;52.378;13.122;2023-05-10T01:32:43;7.27;;;5.00;;
42226;SDS011;27892;52.378;13.122;2023-05-10T01:35:34;5.40;;;4.90;;
42226;SDS011;27892;52.378;13.122;2023-05-10T01:43:33;7.60;;;5.33;;
42226;SDS011;27892;52.378;13.122;2023-05-10T01:46:09;5.00;;;4.40;;
42226;SDS011;27892;52.378;13.122;2023-05-10T01:48:51;5.60;;;4.97;;
42226;SDS011;27892;52.378;13.122;2023-05-10T01:51:22;5.60;;;5.10;;
42226;SDS011;27892;52.378;13.122;2023-05-10T01:53:50;5.47;;;4.87;;
42226;SDS011;27892;52.378;13.122;2023-05-10T01:56:19;6.97;;;5.53;;
42226;SDS011;27892;52.378;13.122;2023-05-10T01:58:49;7.27;;;5.80;;
42226;SDS011;27892;52.378;13.122;2023-05-10T02:01:16;8.27;;;5.33;;
42226;SDS011;27892;52.378;13.122;2023-05-10T02:03:45;7.27;;;5.30;;
42226;SDS011;27892;52.378;13.122;2023-05-10T02:06:12;7.20;;;5.63;;
42226;SDS011;27892;52.378;13.122;2023-05-10T02:08:41;6.27;;;5.43;;
42226;SDS011;27892;52.378;13.122;2023-05-10T02:11:10;6.20;;;5.60;;
42226;SDS011;27892;52.378;13.122;2023-05-10T02:13:39;8.07;;;6.40;;
42226;SDS011;27892;52.378;13.122;2023-05-10T02:16:06;6.70;;;6.00;;
42226;SDS011;27892;52.378;13.122;2023-05-10T02:18:33;6.73;;;5.53;;
42226;SDS011;27892;52.378;13.122;2023-05-10T02:21:01;6.27;;;5.40;;
42226;SDS011;27892;52.378;13.122;2023-05-10T02:23:28;6.30;;;5.70;;
42226;SDS011;27892;52.378;13.122;2023-05-10T02:25:54;7.03;;;5.67;;
42226;SDS011;27892;52.378;13.122;2023-05-10T02:28:23;7.57;;;5.97;;
42226;SDS011;27892;52.378;13.122;2023-05-10T02:30:50;7.97;;;5.60;;
42226;SDS011;27892;52.378;13.122;2023-05-10T02:33:17;8.97;;;6.20;;
42226;SDS011;27892;52.378;13.122;2023-05-10T02:35:45;8.07;;;6.40;;
42226;SDS011;27892;52.378;13.122;2023-05-10T02:38:11;8.20;;;5.97;;
42226;SDS011;27892;52.378;13.122;2023-05-10T02:40:40;7.83;;;5.60;;
42226;SDS011;27892;52.378;13.122;2023-05-10T02:43:07;6.27;;;5.63;;
42226;SDS011;27892;52.378;13.122;2023-05-10T02:45:37;7.23;;;6.03;;
42226;SDS011;27892;52.378;13.122;2023-05-10T02:48:04;7.23;;;5.90;;
42226;SDS011;27892;52.378;13.122;2023-05-10T02:50:31;7.37;;;5.63;;
42226;SDS011;27892;52.378;13.122;2023-05-10T02:53:03;6.90;;;6.00;;
42226;SDS011;27892;52.378;13.122;2023-05-10T02:55:36;6.37;;;5.77;;
42226;SDS011;27892;52.378;13.122;2023-05-10T02:58:05;6.03;;;5.43;;
42226;SDS011;27892;52.378;13.122;2023-05-10T03:00:31;8.40;;;5.63;;
42226;SDS011;27892;52.378;13.122;2023-05-10T03:02:57;6.60;;;5.33;;
42226;SDS011;27892;52.378;13.122;2023-05-10T03:05:23;6.30;;;5.70;;
42226;SDS011;27892;52.378;13.122;2023-05-10T03:07:49;9.00;;;5.60;;
42226;SDS011;27892;52.378;13.122;2023-05-10T03:10:15;8.37;;;6.10;;
42226;SDS011;27892;52.378;13.122;2023-05-10T03:18:01;6.33;;;5.57;;
42226;SDS011;27892;52.378;13.122;2023-05-10T03:20:36;6.20;;;5.60;;
42226;SDS011;27892;52.378;13.122;2023-05-10T03:23:29;6.17;;;5.57;;
42226;SDS011;27892;52.378;13.122;2023-05-10T03:25:54;6.87;;;6.17;;
42226;SDS011;27892;52.378;13.122;2023-05-10T03:28:20;7.43;;;5.83;;
42226;SDS011;27892;52.378;13.122;2023-05-10T03:30:46;5.97;;;5.37;;
42226;SDS011;27892;52.378;13.122;2023-05-10T03:33:13;6.73;;;6.03;;
42226;SDS011;27892;52.378;13.122;2023-05-10T03:35:39;6.33;;;5.73;;
42226;SDS011;27892;52.378;13.122;2023-05-10T03:38:05;6.60;;;5.90;;
42226;SDS011;27892;52.378;13.122;2023-05-10T03:40:30;6.20;;;5.37;;
42226;SDS011;27892;52.378;13.122;2023-05-10T03:42:57;8.33;;;6.10;;
42226;SDS011;27892;52.378;13.122;2023-05-10T03:45:23;6.60;;;5.97;;
42226;SDS011;27892;52.378;13.122;2023-05-10T03:47:49;6.77;;;5.90;;
42226;SDS011;27892;52.378;13.122;2023-05-10T03:50:15;7.77;;;6.23;;
42226;SDS011;27892;52.378;13.122;2023-05-10T03:52:41;6.73;;;5.83;;
42226;SDS011;27892;52.378;13.122;2023-05-10T03:55:06;6.27;;;5.53;;
42226;SDS011;27892;52.378;13.122;2023-05-10T03:57:32;7.17;;;4.90;;
42226;SDS011;27892;52.378;13.122;2023-05-10T03:59:58;6.17;;;5.57;;
42226;SDS011;27892;52.378;13.122;2023-05-10T04:02:24;8.27;;;6.63;;
42226;SDS011;27892;52.378;13.122;2023-05-10T04:04:50;6.97;;;5.90;;
42226;SDS011;27892;52.378;13.122;2023-05-10T04:07:16;7.03;;;6.20;;
42226;SDS011;27892;52.378;13.122;2023-05-10T04:09:41;5.80;;;4.97;;
42226;SDS011;27892;52.378;13.122;2023-05-10T04:12:07;6.30;;;5.07;;
42226;SDS011;27892;52.378;13.122;2023-05-10T04:14:33;7.40;;;5.60;;
42226;SDS011;27892;52.378;13.122;2023-05-10T04:16:59;7.27;;;5.57;;
42226;SDS011;27892;52.378;13.122;2023-05-10T04:19:28;7.80;;;5.10;;
42226;SDS011;27892;52.378;13.122;2023-05-10T04:21:55;8.10;;;6.27;;
42226;SDS011;27892;52.378;13.122;2023-05-10T04:24:20;7.73;;;5.50;;
42226;SDS011;27892;52.378;13.122;2023-05-10T04:26:46;6.47;;;5.63;;
42226;SDS011;27892;52.378;13.122;2023-05-10T04:29:12;7.83;;;6.20;;
42226;SDS011;27892;52.378;13.122;2023-05-10T04:31:37;5.83;;;5.00;;
42226;SDS011;27892;52.378;13.122;2023-05-10T04:34:03;6.13;;;5.13;;
42226;SDS011;27892;52.378;13.122;2023-05-10T04:36:29;6.30;;;5.43;;
42226;SDS011;27892;52.378;13.122;2023-05-10T04:38:54;5.60;;;5.00;;
42226;SDS011;27892;52.378;13.122;2023-05-10T04:41:20;7.07;;;5.30;;
42226;SDS011;27892;52.378;13.122;2023-05-10T04:43:46;8.63;;;5.30;;
42226;SDS011;27892;52.378;13.122;2023-05-10T04:46:14;7.00;;;5.23;;
42226;SDS011;27892;52.378;13.122;2023-05-10T04:48:39;5.37;;;4.87;;
42226;SDS011;27892;52.378;13.122;2023-05-10T04:51:05;5.83;;;5.00;;
42226;SDS011;27892;52.378;13.122;2023-05-10T04:53:31;6.33;;;5.50;;
42226;SDS011;27892;52.378;13.122;2023-05-10T04:55:57;7.17;;;5.43;;
42226;SDS011;27892;52.378;13.122;2023-05-10T04:58:23;7.87;;;4.97;;
42226;SDS011;27892;52.378;13.122;2023-05-10T05:00:49;5.87;;;4.77;;
42226;SDS011;27892;52.378;13.122;2023-05-10T05:03:14;7.50;;;4.70;;
42226;SDS011;27892;52.378;13.122;2023-05-10T05:05:40;5.10;;;4.60;;
42226;SDS011;27892;52.378;13.122;2023-05-10T05:08:06;7.97;;;5.47;;
42226;SDS011;27892;52.378;13.122;2023-05-10T05:10:31;5.03;;;4.53;;
42226;SDS011;27892;52.378;13.122;2023-05-10T05:12:57;7.20;;;5.00;;
42226;SDS011;27892;52.378;13.122;2023-05-10T05:15:23;6.97;;;5.00;;
42226;SDS011;27892;52.378;13.122;2023-05-10T05:17:48;6.47;;;4.50;;
42226;SDS011;27892;52.378;13.122;2023-05-10T05:20:14;7.60;;;4.80;;
42226;SDS011;27892;52.378;13.122;2023-05-10T05:22:40;5.77;;;4.67;;
42226;SDS011;27892;52.378;13.122;2023-05-10T05:25:05;5.40;;;4.53;;
42226;SDS011;27892;52.378;13.122;2023-05-10T05:27:31;11.53;;;5.37;;
42226;SDS011;27892;52.378;13.122;2023-05-10T05:29:57;7.03;;;4.80;;
42226;SDS011;27892;52.378;13.122;2023-05-10T05:32:23;4.87;;;4.40;;
42226;SDS011;27892;52.378;13.122;2023-05-10T05:34:49;6.50;;;4.90;;
42226;SDS011;27892;52.378;13.122;2023-05-10T05:37:16;14.37;;;5.40;;
42226;SDS011;27892;52.378;13.122;2023-05-10T05:39:44;6.53;;;4.20;;
42226;SDS011;27892;52.378;13.122;2023-05-10T05:42:10;7.23;;;4.13;;
42226;SDS011;27892;52.378;13.122;2023-05-10T05:44:37;5.63;;;4.17;;
42226;SDS011;27892;52.378;13.122;2023-05-10T05:47:03;4.43;;;4.03;;
42226;SDS011;27892;52.378;13.122;2023-05-10T05:49:29;4.63;;;3.80;;
42226;SDS011;27892;52.378;13.122;2023-05-10T05:51:58;5.87;;;3.93;;
42226;SDS011;27892;52.378;13.122;2023-05-10T05:54:27;7.40;;;3.90;;
42226;SDS011;27892;52.378;13.122;2023-05-10T05:56:54;4.67;;;3.60;;
42226;SDS011;27892;52.378;13.122;2023-05-10T05:59:23;4.18;;;3.78;;
42226;SDS011;27892;52.378;13.122;2023-05-10T06:01:49;3.45;;;3.15;;
42226;SDS011;27892;52.378;13.122;2023-05-10T06:04:15;3.85;;;3.03;;
42226;SDS011;27892;52.378;13.122;2023-05-10T06:06:41;4.05;;;3.33;;
42226;SDS011;27892;52.378;13.122;2023-05-10T06:09:07;4.60;;;3.60;;
42226;SDS011;27892;52.378;13.122;2023-05-10T06:11:33;15.77;;;6.60;;
42226;SDS011;27892;52.378;13.122;2023-05-10T06:13:59;7.00;;;4.53;;
42226;SDS011;27892;52.378;13.122;2023-05-10T06:16:25;7.35;;;4.43;;
42226;SDS011;27892;52.378;13.122;2023-05-10T06:18:51;3.30;;;3.00;;
42226;SDS011;27892;52.378;13.122;2023-05-10T06:21:17;5.80;;;3.80;;
42226;SDS011;27892;52.378;13.122;2023-05-10T06:23:42;3.90;;;3.33;;
42226;SDS011;27892;52.378;13.122;2023-05-10T06:26:08;4.68;;;3.42;;
42226;SDS011;27892;52.378;13.122;2023-05-10T06:28:34;5.32;;;3.10;;
42226;SDS011;27892;52.378;13.122;2023-05-10T06:31:02;3.80;;;3.45;;
42226;SDS011;27892;52.378;13.122;2023-05-10T06:33:29;5.07;;;3.42;;
42226;SDS011;27892;52.378;13.122;2023-05-10T06:35:55;3.67;;;3.13;;
42226;SDS011;27892;52.378;13.122;2023-05-10T06:38:20;5.15;;;3.53;;
42226;SDS011;27892;52.378;13.122;2023-05-10T06:40:46;3.60;;;3.30;;
42226;SDS011;27892;52.378;13.122;2023-05-10T06:43:12;4.10;;;3.50;;
42226;SDS011;27892;52.378;13.122;2023-05-10T06:45:38;6.78;;;3.28;;
42226;SDS011;27892;52.378;13.122;2023-05-10T06:48:03;3.90;;;3.25;;
42226;SDS011;27892;52.378;13.122;2023-05-10T06:50:29;3.97;;;2.95;;
42226;SDS011;27892;52.378;13.122;2023-05-10T06:52:55;5.10;;;3.28;;
42226;SDS011;27892;52.378;13.122;2023-05-10T06:55:20;5.97;;;2.92;;
42226;SDS011;27892;52.378;13.122;2023-05-10T06:57:46;4.35;;;3.40;;
42226;SDS011;27892;52.378;13.122;2023-05-10T07:00:13;2.95;;;2.58;;
42226;SDS011;27892;52.378;13.122;2023-05-10T07:02:39;8.00;;;3.75;;
42226;SDS011;27892;52.378;13.122;2023-05-10T07:05:04;6.15;;;3.08;;
42226;SDS011;27892;52.378;13.122;2023-05-10T07:07:31;4.03;;;2.80;;
42226;SDS011;27892;52.378;13.122;2023-05-10T07:09:56;3.92;;;2.78;;
42226;SDS011;27892;52.378;13.122;2023-05-10T07:12:23;4.88;;;3.00;;
42226;SDS011;27892;52.378;13.122;2023-05-10T07:14:48;4.05;;;3.20;;
42226;SDS011;27892;52.378;13.122;2023-05-10T07:17:14;3.58;;;2.75;;
42226;SDS011;27892;52.378;13.122;2023-05-10T07:19:40;2.72;;;2.53;;
42226;SDS011;27892;52.378;13.122;2023-05-10T07:22:06;2.90;;;2.63;;
42226;SDS011;27892;52.378;13.122;2023-05-10T07:24:32;5.00;;;3.45;;
42226;SDS011;27892;52.378;13.122;2023-05-10T07:26:58;3.78;;;2.80;;
42226;SDS011;27892;52.378;13.122;2023-05-10T07:29:24;4.20;;;3.10;;
42226;SDS011;27892;52.378;13.122;2023-05-10T07:31:49;3.30;;;3.00;;
42226;SDS011;27892;52.378;13.122;2023-05-10T07:34:15;3.78;;;3.20;;
42226;SDS011;27892;52.378;13.122;2023-05-10T07:36:41;3.47;;;3.00;;
42226;SDS011;27892;52.378;13.122;2023-05-10T07:39:09;3.60;;;2.80;;
42226;SDS011;27892;52.378;13.122;2023-05-10T07:41:34;3.05;;;2.78;;
42226;SDS011;27892;52.378;13.122;2023-05-10T07:44:02;5.93;;;3.30;;
42226;SDS011;27892;52.378;13.122;2023-05-10T07:46:28;8.85;;;3.28;;
42226;SDS011;27892;52.378;13.122;2023-05-10T07:48:54;3.30;;;3.10;;
42226;SDS011;27892;52.378;13.122;2023-05-10T07:51:20;18.48;;;4.10;;
42226;SDS011;27892;52.378;13.122;2023-05-10T07:53:46;4.55;;;3.00;;
42226;SDS011;27892;52.378;13.122;2023-05-10T07:56:25;5.22;;;3.42;;
42226;SDS011;27892;52.378;13.122;2023-05-10T07:58:57;4.80;;;3.28;;
42226;SDS011;27892;52.378;13.122;2023-05-10T08:01:24;4.00;;;3.25;;
42226;SDS011;27892;52.378;13.122;2023-05-10T08:03:50;3.60;;;3.25;;
42226;SDS011;27892;52.378;13.122;2023-05-10T08:06:19;3.78;;;2.95;;
42226;SDS011;27892;52.378;13.122;2023-05-10T08:08:46;3.38;;;2.92;;
42226;SDS011;27892;52.378;13.122;2023-05-10T08:11:17;4.57;;;3.38;;
42226;SDS011;27892;52.378;13.122;2023-05-10T08:13:46;4.28;;;2.85;;
42226;SDS011;27892;52.378;13.122;2023-05-10T08:16:13;4.43;;;3.60;;
42226;SDS011;27892;52.378;13.122;2023-05-10T08:18:38;3.50;;;3.00;;
42226;SDS011;27892;52.378;13.122;2023-05-10T08:21:05;3.55;;;3.25;;
42226;SDS011;27892;52.378;13.122;2023-05-10T08:23:31;3.25;;;2.70;;
42226;SDS011;27892;52.378;13.122;2023-05-10T08:25:57;3.17;;;2.88;;
42226;SDS011;27892;52.378;13.122;2023-05-10T08:28:22;3.47;;;3.15;;
42226;SDS011;27892;52.378;13.122;2023-05-10T08:30:49;5.78;;;2.80;;
42226;SDS011;27892;52.378;13.122;2023-05-10T08:33:15;4.00;;;3.25;;
42226;SDS011;27892;52.378;13.122;2023-05-10T08:35:41;3.08;;;2.85;;
42226;SDS011;27892;52.378;13.122;2023-05-10T08:38:06;4.63;;;2.92;;
42226;SDS011;27892;52.378;13.122;2023-05-10T08:40:32;2.83;;;2.50;;
42226;SDS011;27892;52.378;13.122;2023-05-10T08:43:08;6.43;;;3.15;;
42226;SDS011;27892;52.378;13.122;2023-05-10T08:45:41;4.53;;;3.35;;
42226;SDS011;27892;52.378;13.122;2023-05-10T08:48:09;3.33;;;2.88;;
42226;SDS011;27892;52.378;13.122;2023-05-10T08:50:35;3.72;;;3.35;;
42226;SDS011;27892;52.378;13.122;2023-05-10T08:53:04;5.25;;;3.10;;
42226;SDS011;27892;52.378;13.122;2023-05-10T08:55:38;3.60;;;3.30;;
42226;SDS011;27892;52.378;13.122;2023-05-10T08:58:05;3.10;;;2.80;;
42226;SDS011;27892;52.378;13.122;2023-05-10T09:00:32;4.05;;;3.53;;
42226;SDS011;27892;52.378;13.122;2023-05-10T09:02:58;3.45;;;2.95;;
42226;SDS011;27892;52.378;13.122;2023-05-10T09:05:24;3.45;;;3.15;;
42226;SDS011;27892;52.378;13.122;2023-05-10T09:07:50;4.97;;;3.20;;
42226;SDS011;27892;52.378;13.122;2023-05-10T09:10:16;4.20;;;2.85;;
42226;SDS011;27892;52.378;13.122;2023-05-10T09:12:43;2.95;;;2.75;;
42226;SDS011;27892;52.378;13.122;2023-05-10T09:15:10;4.28;;;3.13;;
42226;SDS011;27892;52.378;13.122;2023-05-10T09:17:36;4.57;;;3.20;;
42226;SDS011;27892;52.378;13.122;2023-05-10T09:20:04;4.13;;;3.25;;
42226;SDS011;27892;52.378;13.122;2023-05-10T09:22:31;4.43;;;3.47;;
42226;SDS011;27892;52.378;13.122;2023-05-10T09:25:04;3.10;;;2.83;;
42226;SDS011;27892;52.378;13.122;2023-05-10T09:27:30;3.55;;;2.95;;
42226;SDS011;27892;52.378;13.122;2023-05-10T09:29:55;6.45;;;3.40;;
42226;SDS011;27892;52.378;13.122;2023-05-10T09:32:21;3.10;;;2.80;;
42226;SDS011;27892;52.378;13.122;2023-05-10T09:34:47;3.88;;;3.28;;
42226;SDS011;27892;52.378;13.122;2023-05-10T09:37:15;2.95;;;2.70;;
42226;SDS011;27892;52.378;13.122;2023-05-10T09:39:40;5.03;;;3.20;;
42226;SDS011;27892;52.378;13.122;2023-05-10T09:42:07;27.42;;;18.38;;
42226;SDS011;27892;52.378;13.122;2023-05-10T09:44:34;4.97;;;4.47;;
42226;SDS011;27892;52.378;13.122;2023-05-10T09:47:00;2.60;;;2.40;;
42226;SDS011;27892;52.378;13.122;2023-05-10T09:49:26;3.10;;;2.33;;
42226;SDS011;27892;52.378;13.122;2023-05-10T09:52:05;3.38;;;2.45;;
42226;SDS011;27892;52.378;13.122;2023-05-10T09:54:33;2.53;;;2.30;;
42226;SDS011;27892;52.378;13.122;2023-05-10T09:56:59;5.30;;;2.20;;
42226;SDS011;27892;52.378;13.122;2023-05-10T09:59:26;6.68;;;2.90;;
42226;SDS011;27892;52.378;13.122;2023-05-10T10:01:53;4.55;;;2.72;;
42226;SDS011;27892;52.378;13.122;2023-05-10T10:04:21;6.05;;;2.38;;
42226;SDS011;27892;52.378;13.122;2023-05-10T10:06:57;2.40;;;2.17;;
42226;SDS011;27892;52.378;13.122;2023-05-10T10:09:25;2.47;;;2.30;;
42226;SDS011;27892;52.378;13.122;2023-05-10T10:11:52;3.30;;;2.60;;
42226;SDS011;27892;52.378;13.122;2023-05-10T10:14:18;2.90;;;2.42;;
42226;SDS011;27892;52.378;13.122;2023-05-10T10:16:45;3.60;;;2.55;;
42226;SDS011;27892;52.378;13.122;2023-05-10T10:19:11;17.58;;;2.92;;
42226;SDS011;27892;52.378;13.122;2023-05-10T10:21:37;2.30;;;2.03;;
42226;SDS011;27892;52.378;13.122;2023-05-10T10:24:03;2.92;;;2.30;;
42226;SDS011;27892;52.378;13.122;2023-05-10T10:26:30;2.08;;;1.88;;
42226;SDS011;27892;52.378;13.122;2023-05-10T10:29:18;2.17;;;2.03;;
42226;SDS011;27892;52.378;13.122;2023-05-10T10:31:57;2.33;;;2.13;;
42226;SDS011;27892;52.378;13.122;2023-05-10T10:34:30;3.28;;;2.00;;
42226;SDS011;27892;52.378;13.122;2023-05-10T10:36:57;2.30;;;2.15;;
42226;SDS011;27892;52.378;13.122;2023-05-10T10:39:26;2.45;;;2.25;;
42226;SDS011;27892;52.378;13.122;2023-05-10T10:41:53;1.80;;;1.70;;
42226;SDS011;27892;52.378;13.122;2023-05-10T10:47:02;2.50;;;2.20;;
42226;SDS011;27892;52.378;13.122;2023-05-10T10:49:52;2.38;;;2.00;;
42226;SDS011;27892;52.378;13.122;2023-05-10T10:52:35;3.05;;;2.45;;
42226;SDS011;27892;52.378;13.122;2023-05-10T10:57:51;2.22;;;2.00;;
42226;SDS011;27892;52.378;13.122;2023-05-10T11:05:42;3.72;;;2.30;;
42226;SDS011;27892;52.378;13.122;2023-05-10T11:08:16;3.97;;;2.15;;
42226;SDS011;27892;52.378;13.122;2023-05-10T11:13:36;2.55;;;2.35;;
42226;SDS011;27892;52.378;13.122;2023-05-10T11:16:18;3.03;;;2.22;;
42226;SDS011;27892;52.378;13.122;2023-05-10T11:18:53;2.15;;;2.03;;
42226;SDS011;27892;52.378;13.122;2023-05-10T11:21:19;2.88;;;2.38;;
42226;SDS011;27892;52.378;13.122;2023-05-10T11:26:21;2.60;;;2.40;;
42226;SDS011;27892;52.378;13.122;2023-05-10T11:28:51;4.22;;;2.10;;
42226;SDS011;27892;52.378;13.122;2023-05-10T11:31:21;2.70;;;2.40;;
42226;SDS011;27892;52.378;13.122;2023-05-10T11:33:49;2.42;;;2.17;;
42226;SDS011;27892;52.378;13.122;2023-05-10T11:36:23;3.40;;;2.28;;
42226;SDS011;27892;52.378;13.122;2023-05-10T11:38:51;2.38;;;2.17;;
42226;SDS011;27892;52.378;13.122;2023-05-10T11:41:17;4.68;;;2.30;;
42226;SDS011;27892;52.378;13.122;2023-05-10T11:43:46;2.60;;;2.40;;
42226;SDS011;27892;52.378;13.122;2023-05-10T11:46:14;2.30;;;2.10;;
42226;SDS011;27892;52.378;13.122;2023-05-10T11:48:42;2.22;;;1.90;;
42226;SDS011;27892;52.378;13.122;2023-05-10T11:51:08;3.50;;;2.13;;
42226;SDS011;27892;52.378;13.122;2023-05-10T11:53:35;2.38;;;2.08;;
42226;SDS011;27892;52.378;13.122;2023-05-10T11:56:07;2.20;;;2.00;;
42226;SDS011;27892;52.378;13.122;2023-05-10T11:58:35;2.08;;;1.98;;
42226;SDS011;27892;52.378;13.122;2023-05-10T12:01:02;2.50;;;2.30;;
42226;SDS011;27892;52.378;13.122;2023-05-10T12:03:28;2.92;;;2.30;;
42226;SDS011;27892;52.378;13.122;2023-05-10T12:05:55;3.60;;;2.28;;
42226;SDS011;27892;52.378;13.122;2023-05-10T12:08:22;2.20;;;1.90;;
42226;SDS011;27892;52.378;13.122;2023-05-10T12:10:49;8.40;;;2.60;;
42226;SDS011;27892;52.378;13.122;2023-05-10T12:13:16;2.22;;;2.05;;
42226;SDS011;27892;52.378;13.122;2023-05-10T12:15:42;2.38;;;2.17;;
42226;SDS011;27892;52.378;13.122;2023-05-10T12:18:14;3.33;;;1.90;;
42226;SDS011;27892;52.378;13.122;2023-05-10T12:20:47;1.80;;;1.70;;
42226;SDS011;27892;52.378;13.122;2023-05-10T12:23:12;5.70;;;2.55;;
42226;SDS011;27892;52.378;13.122;2023-05-10T12:25:38;2.63;;;1.90;;
42226;SDS011;27892;52.378;13.122;2023-05-10T12:28:05;2.95;;;2.67;;
42226;SDS011;27892;52.378;13.122;2023-05-10T12:30:33;4.32;;;2.58;;
42226;SDS011;27892;52.378;13.122;2023-05-10T12:33:00;3.20;;;1.90;;
42226;SDS011;27892;52.378;13.122;2023-05-10T12:35:46;3.72;;;2.65;;
42226;SDS011;27892;52.378;13.122;2023-05-10T12:38:29;2.65;;;2.20;;
42226;SDS011;27892;52.378;13.122;2023-05-10T12:40:58;3.15;;;2.28;;
42226;SDS011;27892;52.378;13.122;2023-05-10T12:43:25;2.22;;;2.13;;
42226;SDS011;27892;52.378;13.122;2023-05-10T12:45:50;2.05;;;1.92;;
42226;SDS011;27892;52.378;13.122;2023-05-10T12:48:16;2.28;;;2.05;;
42226;SDS011;27892;52.378;13.122;2023-05-10T12:50:42;4.47;;;2.42;;
42226;SDS011;27892;52.378;13.122;2023-05-10T12:53:07;2.78;;;2.28;;
42226;SDS011;27892;52.378;13.122;2023-05-10T12:55:33;4.45;;;2.47;;
42226;SDS011;27892;52.378;13.122;2023-05-10T12:57:59;2.65;;;2.13;;
42226;SDS011;27892;52.378;13.122;2023-05-10T13:00:25;5.13;;;2.10;;
42226;SDS011;27892;52.378;13.122;2023-05-10T13:02:50;2.35;;;2.15;;
42226;SDS011;27892;52.378;13.122;2023-05-10T13:05:16;1.83;;;1.73;;
42226;SDS011;27892;52.378;13.122;2023-05-10T13:07:41;2.72;;;2.50;;
42226;SDS011;27892;52.378;13.122;2023-05-10T13:10:08;3.78;;;2.60;;
42226;SDS011;27892;52.378;13.122;2023-05-10T13:12:35;4.63;;;2.15;;
42226;SDS011;27892;52.378;13.122;2023-05-10T13:15:01;1.90;;;1.80;;
42226;SDS011;27892;52.378;13.122;2023-05-10T13:17:28;2.22;;;2.00;;
42226;SDS011;27892;52.378;13.122;2023-05-10T13:19:54;2.55;;;2.35;;
42226;SDS011;27892;52.378;13.122;2023-05-10T13:22:19;2.65;;;2.22;;
42226;SDS011;27892;52.378;13.122;2023-05-10T13:24:45;2.50;;;2.30;;
42226;SDS011;27892;52.378;13.122;2023-05-10T13:27:11;3.15;;;2.58;;
42226;SDS011;27892;52.378;13.122;2023-05-10T13:29:37;2.30;;;2.10;;
42226;SDS011;27892;52.378;13.122;2023-05-10T13:32:02;1.98;;;1.88;;
42226;SDS011;27892;52.378;13.122;2023-05-10T13:34:28;2.35;;;2.10;;
42226;SDS011;27892;52.378;13.122;2023-05-10T13:36:54;2.40;;;2.20;;
42226;SDS011;27892;52.378;13.122;2023-05-10T13:39:21;2.50;;;2.30;;
42226;SDS011;27892;52.378;13.122;2023-05-10T13:41:47;1.92;;;1.80;;
42226;SDS011;27892;52.378;13.122;2023-05-10T13:44:13;2.20;;;2.10;;
42226;SDS011;27892;52.378;13.122;2023-05-10T13:46:40;4.57;;;3.97;;
42226;SDS011;27892;52.378;13.122;2023-05-10T13:49:08;10.65;;;9.38;;
42226;SDS011;27892;52.378;13.122;2023-05-10T13:51:34;3.40;;;3.10;;
42226;SDS011;27892;52.378;13.122;2023-05-10T13:54:01;3.15;;;2.60;;
42226;SDS011;27892;52.378;13.122;2023-05-10T13:56:27;2.83;;;2.58;;
42226;SDS011;27892;52.378;13.122;2023-05-10T13:58:52;2.13;;;2.00;;
42226;SDS011;27892;52.378;13.122;2023-05-10T14:01:18;2.30;;;2.20;;
42226;SDS011;27892;52.378;13.122;2023-05-10T14:03:44;2.25;;;2.05;;
42226;SDS011;27892;52.378;13.122;2023-05-10T14:06:09;2.63;;;2.30;;
42226;SDS011;27892;52.378;13.122;2023-05-10T14:08:35;2.10;;;1.90;;
42226;SDS011;27892;52.378;13.122;2023-05-10T14:11:01;2.40;;;2.20;;
42226;SDS011;27892;52.378;13.122;2023-05-10T14:13:27;2.33;;;2.10;;
42226;SDS011;27892;52.378;13.122;2023-05-10T14:15:53;2.10;;;2.00;;
42226;SDS011;27892;52.378;13.122;2023-05-10T14:18:19;2.17;;;2.00;;
42226;SDS011;27892;52.378;13.122;2023-05-10T14:20:45;2.15;;;2.05;;
42226;SDS011;27892;52.378;13.122;2023-05-10T14:23:11;2.40;;;2.20;;
42226;SDS011;27892;52.378;13.122;2023-05-10T14:25:37;2.50;;;2.30;;
42226;SDS011;27892;52.378;13.122;2023-05-10T14:28:05;2.70;;;2.50;;
42226;SDS011;27892;52.378;13.122;2023-05-10T14:30:31;2.65;;;2.30;;
42226;SDS011;27892;52.378;13.122;2023-05-10T14:32:57;4.55;;;2.50;;
42226;SDS011;27892;52.378;13.122;2023-05-10T14:35:23;3.08;;;2.10;;
42226;SDS011;27892;52.378;13.122;2023-05-10T14:37:49;1.88;;;1.77;;
42226;SDS011;27892;52.378;13.122;2023-05-10T14:40:15;2.17;;;2.08;;
42226;SDS011;27892;52.378;13.122;2023-05-10T14:42:42;2.33;;;2.13;;
42226;SDS011;27892;52.378;13.122;2023-05-10T14:45:08;2.33;;;2.13;;
42226;SDS011;27892;52.378;13.122;2023-05-10T14:47:34;7.75;;;2.65;;
42226;SDS011;27892;52.378;13.122;2023-05-10T14:50:00;4.82;;;2.20;;
42226;SDS011;27892;52.378;13.122;2023-05-10T14:52:26;2.10;;;2.00;;
42226;SDS011;27892;52.378;13.122;2023-05-10T14:54:51;2.70;;;2.50;;
42226;SDS011;27892;52.378;13.122;2023-05-10T14:57:17;2.30;;;2.10;;
42226;SDS011;27892;52.378;13.122;2023-05-10T14:59:43;2.03;;;1.85;;
42226;SDS011;27892;52.378;13.122;2023-05-10T15:02:08;1.95;;;1.75;;
42226;SDS011;27892;52.378;13.122;2023-05-10T15:04:35;1.90;;;1.80;;
42226;SDS011;27892;52.378;13.122;2023-05-10T15:07:01;2.38;;;2.13;;
42226;SDS011;27892;52.378;13.122;2023-05-10T15:09:26;2.10;;;2.00;;